Time;durP1;ratioP1;P1;durP2;ratioP2;P2;SDS_P1;SDS_P2;PMS_P1;PMS_P2;Temp;Humidity;BMP_temperature;BMP_pressure;BME280_temperature;BME280_humidity;BME280_pressure;Samples;Min_cycle;Max_cycle;Signal;HPM_P1;HPM_P2
2022/04/23 00:02:12;;;;;;;11.43;6.28;;;10.50;99.90;;;;;;5022821;28;20416;-85
2022/04/23 00:04:38;;;;;;;13.43;6.47;;;10.50;99.90;;;;;;5016955;28;20339;-85
2022/04/23 00:07:07;;;;;;;9.13;6.30;;;10.40;99.90;;;;;;5034478;28;20129;-86
2022/04/23 00:09:33;;;;;;;10.98;6.85;;;10.40;99.90;;;;;;5018949;28;20053;-86
2022/04/23 00:12:00;;;;;;;11.00;6.28;;;10.40;99.90;;;;;;5016241;28;20052;-86
2022/04/23 00:14:26;;;;;;;11.63;7.35;;;10.30;99.90;;;;;;5014164;28;20064;-86
2022/04/23 00:16:53;;;;;;;13.40;6.70;;;10.20;99.90;;;;;;5015817;28;20425;-86
2022/04/23 00:19:20;;;;;;;11.88;7.65;;;10.20;99.90;;;;;;5009786;28;20540;-84
2022/04/23 00:21:45;;;;;;;12.85;6.88;;;10.10;99.90;;;;;;5014794;28;20710;-84
2022/04/23 00:24:11;;;;;;;11.43;6.57;;;10.00;99.90;;;;;;5013298;28;20079;-86
2022/04/23 00:26:37;;;;;;;11.68;7.47;;;9.90;99.90;;;;;;5013751;28;20054;-86
2022/04/23 00:29:03;;;;;;;11.77;7.30;;;9.90;99.90;;;;;;5019568;28;20034;-85
2022/04/23 00:31:28;;;;;;;13.60;7.03;;;9.80;99.90;;;;;;5018002;28;20042;-86
2022/04/23 00:33:54;;;;;;;11.48;7.05;;;9.80;99.90;;;;;;5013454;28;20477;-86
2022/04/23 00:36:23;;;;;;;10.40;6.90;;;9.70;99.90;;;;;;5014838;28;20053;-85
2022/04/23 00:38:52;;;;;;;11.18;7.72;;;9.70;99.90;;;;;;5015860;28;20369;-84
2022/04/23 00:44:04;;;;;;;12.27;7.55;;;9.60;99.90;;;;;;5013740;28;20064;-84
2022/04/23 00:46:29;;;;;;;12.32;7.68;;;9.50;99.90;;;;;;5014568;28;20068;-85
2022/04/23 00:48:55;;;;;;;13.88;7.70;;;9.50;99.90;;;;;;5015263;28;20120;-85
2022/04/23 00:51:21;;;;;;;15.65;7.88;;;9.50;99.90;;;;;;5016569;28;20049;-85
2022/04/23 00:53:48;;;;;;;12.95;8.32;;;9.50;99.90;;;;;;5017734;28;20057;-85
2022/04/23 00:56:15;;;;;;;12.98;7.65;;;9.40;99.90;;;;;;5016365;28;20401;-84
2022/04/23 00:58:41;;;;;;;12.38;7.53;;;9.40;99.90;;;;;;5016360;28;20041;-85
2022/04/23 01:01:06;;;;;;;12.80;7.55;;;9.40;99.90;;;;;;5015513;28;20053;-84
2022/04/23 01:03:32;;;;;;;11.88;7.40;;;9.40;99.90;;;;;;5021799;28;20135;-85
2022/04/23 01:05:58;;;;;;;15.85;8.07;;;9.40;99.90;;;;;;5015208;28;20076;-85
2022/04/23 01:08:26;;;;;;;15.90;8.07;;;9.40;99.90;;;;;;5021491;28;20041;-85
2022/04/23 01:10:52;;;;;;;17.88;8.52;;;9.30;99.90;;;;;;5019385;28;20083;-85
2022/04/23 01:13:18;;;;;;;13.18;8.63;;;9.30;99.90;;;;;;5018479;28;20049;-85
2022/04/23 01:15:56;;;;;;;14.35;7.93;;;9.30;99.90;;;;;;5020318;28;20033;-85
2022/04/23 01:18:22;;;;;;;14.05;8.48;;;9.30;99.90;;;;;;5020068;28;20489;-84
2022/04/23 01:20:48;;;;;;;14.52;8.32;;;9.30;99.90;;;;;;5021923;28;20085;-85
2022/04/23 01:23:14;;;;;;;14.27;8.00;;;9.20;99.90;;;;;;5021314;28;20103;-85
2022/04/23 01:25:39;;;;;;;13.52;8.48;;;9.20;99.90;;;;;;5018574;28;20049;-85
2022/04/23 01:28:07;;;;;;;15.75;8.73;;;9.20;99.90;;;;;;5018880;28;20419;-84
2022/04/23 01:30:32;;;;;;;14.02;7.75;;;9.10;99.90;;;;;;5023216;28;20583;-85
2022/04/23 01:32:58;;;;;;;19.65;9.55;;;9.10;99.90;;;;;;5021145;28;20057;-84
2022/04/23 01:35:23;;;;;;;17.63;9.52;;;9.10;99.90;;;;;;5020051;28;20397;-83
2022/04/23 01:37:49;;;;;;;15.20;9.25;;;9.10;99.90;;;;;;5022841;28;20037;-84
2022/04/23 01:40:16;;;;;;;13.98;9.13;;;9.00;99.90;;;;;;5021732;28;20053;-84
2022/04/23 01:42:42;;;;;;;14.80;9.13;;;9.00;99.90;;;;;;5023100;28;20052;-84
2022/04/23 01:45:08;;;;;;;18.17;9.20;;;9.00;99.90;;;;;;5015201;28;20416;-84
2022/04/23 01:47:34;;;;;;;14.52;9.43;;;9.00;99.90;;;;;;5023968;28;20042;-84
2022/04/23 01:50:00;;;;;;;16.70;9.30;;;8.90;99.90;;;;;;5021968;28;20041;-83
2022/04/23 01:52:25;;;;;;;17.98;9.77;;;8.90;99.90;;;;;;5024634;28;20053;-84
2022/04/23 01:54:51;;;;;;;16.42;9.35;;;8.90;99.90;;;;;;5025510;28;20048;-82
2022/04/23 01:57:16;;;;;;;18.80;9.82;;;8.90;99.90;;;;;;5015750;28;20044;-84
2022/04/23 01:59:42;;;;;;;14.88;10.27;;;8.80;99.90;;;;;;5016749;28;20056;-84
2022/04/23 02:02:07;;;;;;;15.73;10.13;;;8.90;99.90;;;;;;5021768;28;20048;-82
2022/04/23 02:04:33;;;;;;;17.02;10.32;;;8.90;99.90;;;;;;5021942;28;20511;-84
2022/04/23 02:07:00;;;;;;;17.73;10.68;;;8.90;99.90;;;;;;5021854;28;20508;-84
2022/04/23 02:09:26;;;;;;;20.08;10.07;;;8.90;99.90;;;;;;5022085;28;20187;-84
2022/04/23 02:11:52;;;;;;;18.15;10.43;;;8.90;99.90;;;;;;5023584;28;20128;-84
2022/04/23 02:14:17;;;;;;;21.95;10.65;;;9.00;99.90;;;;;;5021360;28;20601;-83
2022/04/23 02:16:43;;;;;;;17.45;10.25;;;9.00;99.90;;;;;;5019605;28;20048;-84
2022/04/23 02:19:09;;;;;;;16.95;10.80;;;9.00;99.90;;;;;;5015701;28;20076;-83
2022/04/23 02:21:34;;;;;;;17.05;10.38;;;9.00;99.90;;;;;;5023896;28;20057;-83
2022/04/23 02:24:03;;;;;;;16.73;10.90;;;9.10;99.90;;;;;;5022488;28;20053;-84
2022/04/23 02:26:29;;;;;;;16.73;10.45;;;9.10;99.90;;;;;;5019197;28;20126;-84
2022/04/23 02:28:55;;;;;;;19.23;11.50;;;9.10;99.90;;;;;;5022254;28;20143;-85
2022/04/23 02:31:20;;;;;;;18.40;11.68;;;9.10;99.90;;;;;;5024370;28;20137;-83
2022/04/23 02:33:46;;;;;;;23.55;12.65;;;9.10;99.90;;;;;;5017186;28;20865;-84
2022/04/23 02:36:12;;;;;;;19.17;12.65;;;9.10;99.90;;;;;;5017623;28;21936;-85
2022/04/23 02:38:41;;;;;;;21.92;11.75;;;9.10;99.90;;;;;;5021639;28;20044;-85
2022/04/23 02:41:08;;;;;;;18.30;11.98;;;9.10;99.90;;;;;;5021230;28;20084;-84
2022/04/23 02:43:35;;;;;;;16.75;11.13;;;9.10;99.90;;;;;;5022159;28;20508;-85
2022/04/23 02:46:02;;;;;;;15.32;11.45;;;9.10;99.90;;;;;;5016943;28;20042;-74
2022/04/23 02:48:28;;;;;;;18.33;11.63;;;9.10;99.90;;;;;;5017164;28;20042;-84
2022/04/23 02:50:54;;;;;;;20.48;12.57;;;9.10;99.90;;;;;;5020406;28;20063;-85
2022/04/23 02:53:20;;;;;;;23.13;12.45;;;9.10;99.90;;;;;;5018835;28;20132;-85
2022/04/23 02:55:46;;;;;;;18.38;11.95;;;9.10;99.90;;;;;;5014771;28;20133;-85
2022/04/23 02:58:12;;;;;;;17.08;12.05;;;9.10;99.90;;;;;;5018529;28;20053;-85
2022/04/23 03:00:40;;;;;;;15.43;11.70;;;9.10;99.90;;;;;;5019012;28;20072;-85
2022/04/23 03:03:09;;;;;;;18.48;12.40;;;9.10;99.90;;;;;;5018261;28;20046;-81
2022/04/23 03:05:35;;;;;;;20.60;13.63;;;9.00;99.90;;;;;;5017517;28;20049;-85
2022/04/23 03:08:02;;;;;;;17.95;12.63;;;9.00;99.90;;;;;;5017326;28;20131;-78
2022/04/23 03:10:30;;;;;;;20.90;13.73;;;9.00;99.90;;;;;;5020282;28;20045;-84
2022/04/23 03:12:57;;;;;;;18.23;12.30;;;9.00;99.90;;;;;;5017818;28;20045;-84
2022/04/23 03:15:25;;;;;;;18.98;12.80;;;9.00;99.90;;;;;;5019918;28;20056;-84
2022/04/23 03:18:08;;;;;;;19.67;12.80;;;9.00;99.90;;;;;;5019846;28;20042;-84
2022/04/23 03:20:34;;;;;;;21.70;13.07;;;8.90;99.90;;;;;;5019258;28;20053;-84
2022/04/23 03:23:00;;;;;;;18.40;13.15;;;8.90;99.90;;;;;;5021202;28;20048;-84
2022/04/23 03:25:25;;;;;;;19.30;13.23;;;8.90;99.90;;;;;;5017727;28;20570;-84
2022/04/23 03:27:51;;;;;;;19.15;13.80;;;8.90;99.90;;;;;;5017662;28;20045;-84
2022/04/23 03:30:17;;;;;;;17.88;13.55;;;8.90;99.90;;;;;;5013634;28;20139;-84
2022/04/23 03:32:42;;;;;;;21.75;12.52;;;8.90;99.90;;;;;;5013825;28;20069;-85
2022/04/23 03:35:08;;;;;;;18.92;13.20;;;8.90;99.90;;;;;;5017831;28;20048;-84
2022/04/23 03:37:37;;;;;;;22.60;13.48;;;8.90;99.90;;;;;;5017032;28;20055;-84
2022/04/23 03:40:07;;;;;;;19.02;12.30;;;8.90;99.90;;;;;;5021101;28;20049;-84
2022/04/23 03:42:34;;;;;;;23.63;12.63;;;8.90;99.90;;;;;;5023345;28;20054;-84
2022/04/23 03:45:04;;;;;;;20.23;13.45;;;8.90;99.90;;;;;;5018503;28;20103;-83
2022/04/23 03:47:33;;;;;;;19.50;13.13;;;8.90;99.90;;;;;;5015694;28;20113;-84
2022/04/23 03:50:05;;;;;;;17.75;12.48;;;8.90;99.90;;;;;;5018418;28;20069;-83
2022/04/23 03:52:32;;;;;;;18.90;12.80;;;8.90;99.90;;;;;;5022134;28;20471;-83
2022/04/23 03:54:58;;;;;;;19.38;12.73;;;8.90;99.90;;;;;;5021296;28;20050;-83
2022/04/23 03:57:23;;;;;;;20.70;13.13;;;8.90;99.90;;;;;;5018483;28;20041;-83
2022/04/23 03:59:49;;;;;;;20.02;13.20;;;8.90;99.90;;;;;;5018866;28;20095;-83
2022/04/23 04:02:14;;;;;;;26.70;14.40;;;8.90;99.90;;;;;;5020846;28;20045;-84
2022/04/23 04:04:42;;;;;;;16.65;12.30;;;8.90;99.90;;;;;;5016728;28;20050;-84
2022/04/23 04:07:07;;;;;;;18.83;14.23;;;8.90;99.90;;;;;;5017766;28;20042;-82
2022/04/23 04:09:33;;;;;;;20.20;12.80;;;8.80;99.90;;;;;;5017574;28;20536;-83
2022/04/23 04:12:01;;;;;;;20.17;13.18;;;8.80;99.90;;;;;;5018536;28;20503;-84
2022/04/23 04:14:35;;;;;;;20.65;12.25;;;8.80;99.90;;;;;;5017266;28;20045;-83
2022/04/23 04:17:03;;;;;;;20.80;13.68;;;8.80;99.90;;;;;;5021934;28;20042;-84
2022/04/23 04:19:30;;;;;;;19.40;12.75;;;8.80;99.90;;;;;;5020009;28;20069;-84
2022/04/23 04:21:57;;;;;;;21.48;12.45;;;8.80;99.90;;;;;;5019958;28;20527;-83
2022/04/23 04:24:23;;;;;;;20.73;12.73;;;8.80;99.90;;;;;;5021829;28;20053;-84
2022/04/23 04:26:49;;;;;;;19.98;12.88;;;8.80;99.90;;;;;;5016214;28;20064;-83
2022/04/23 04:29:15;;;;;;;19.38;12.85;;;8.70;99.90;;;;;;5021934;28;20049;-84
2022/04/23 04:31:47;;;;;;;18.60;12.57;;;8.70;99.90;;;;;;5020914;28;20051;-83
2022/04/23 04:34:17;;;;;;;21.02;13.60;;;8.70;99.90;;;;;;5017662;28;20096;-83
2022/04/23 04:36:43;;;;;;;18.88;12.70;;;8.60;99.90;;;;;;5015899;28;20073;-82
2022/04/23 04:39:08;;;;;;;17.83;13.35;;;8.60;99.90;;;;;;5017792;28;20041;-82
2022/04/23 04:41:35;;;;;;;18.23;11.50;;;8.60;99.90;;;;;;5015557;28;20041;-85
2022/04/23 04:44:02;;;;;;;19.23;12.90;;;8.60;99.90;;;;;;5016853;28;20057;-72
2022/04/23 04:46:28;;;;;;;20.30;11.85;;;8.60;99.90;;;;;;5019349;28;20041;-83
2022/04/23 04:48:53;;;;;;;18.83;12.85;;;8.60;99.90;;;;;;5017294;28;20515;-82
2022/04/23 04:51:19;;;;;;;17.63;12.40;;;8.70;99.90;;;;;;5018425;28;20048;-84
2022/04/23 04:53:44;;;;;;;16.08;11.68;;;8.60;99.90;;;;;;5019628;28;20041;-83
2022/04/23 04:56:10;;;;;;;19.63;12.35;;;8.60;99.90;;;;;;5017140;28;20753;-83
2022/04/23 04:58:36;;;;;;;18.92;11.63;;;8.70;99.90;;;;;;5032955;28;20048;-83
2022/04/23 05:01:03;;;;;;;18.75;12.05;;;8.70;99.90;;;;;;5016939;28;20503;-81
2022/04/23 05:03:29;;;;;;;16.08;11.00;;;8.70;99.90;;;;;;5016894;28;20075;-83
2022/04/23 05:05:55;;;;;;;16.33;11.90;;;8.80;99.90;;;;;;5014083;28;20096;-82
2022/04/23 05:08:20;;;;;;;17.98;12.23;;;8.80;99.90;;;;;;5021050;28;20045;-82
2022/04/23 05:10:47;;;;;;;15.93;11.98;;;8.90;99.90;;;;;;5022610;28;20168;-83
2022/04/23 05:13:12;;;;;;;16.85;11.90;;;8.90;99.90;;;;;;5019522;28;20068;-82
2022/04/23 05:15:39;;;;;;;17.05;12.75;;;8.90;99.90;;;;;;5019787;28;20065;-82
2022/04/23 05:18:04;;;;;;;16.42;11.77;;;9.00;99.90;;;;;;5016801;28;20600;-82
2022/04/23 05:20:30;;;;;;;14.98;11.18;;;9.00;99.90;;;;;;5022147;28;20072;-82
2022/04/23 05:22:56;;;;;;;19.02;11.30;;;9.00;99.90;;;;;;5019896;28;20073;-84
2022/04/23 05:25:21;;;;;;;17.02;10.40;;;9.10;99.90;;;;;;5016954;28;20041;-81
2022/04/23 05:27:47;;;;;;;20.98;11.63;;;9.10;99.90;;;;;;5020819;28;20046;-81
2022/04/23 05:30:12;;;;;;;16.38;11.68;;;9.20;99.90;;;;;;5020503;28;20050;-83
2022/04/23 05:32:38;;;;;;;17.67;11.93;;;9.20;99.90;;;;;;5020688;28;20049;-83
2022/04/23 05:35:04;;;;;;;15.07;11.02;;;9.30;99.90;;;;;;5021295;28;20049;-83
2022/04/23 05:37:30;;;;;;;14.45;10.98;;;9.30;99.90;;;;;;5022949;28;20441;-84
2022/04/23 05:39:56;;;;;;;16.83;11.75;;;9.40;99.90;;;;;;5022193;28;20042;-84
2022/04/23 05:42:21;;;;;;;15.32;10.85;;;9.50;99.90;;;;;;5018024;28;20061;-83
2022/04/23 05:44:47;;;;;;;15.98;11.43;;;9.50;99.90;;;;;;5019994;28;20100;-84
2022/04/23 05:47:12;;;;;;;13.95;10.48;;;9.60;99.90;;;;;;5020632;28;20072;-83
2022/04/23 05:49:38;;;;;;;20.30;11.07;;;9.70;99.90;;;;;;5017641;28;20057;-83
2022/04/23 05:52:04;;;;;;;14.43;11.75;;;9.70;99.90;;;;;;5020542;28;20042;-83
2022/04/23 05:54:30;;;;;;;16.30;10.32;;;9.80;99.90;;;;;;5016354;28;20606;-84
2022/04/23 05:56:55;;;;;;;16.25;12.02;;;9.90;99.90;;;;;;5025127;28;20045;-83
2022/04/23 05:59:21;;;;;;;16.70;10.98;;;10.00;99.90;;;;;;5022343;28;20753;-84
2022/04/23 06:01:46;;;;;;;14.32;10.70;;;10.10;99.90;;;;;;5019074;28;20037;-82
2022/04/23 06:04:12;;;;;;;15.70;10.30;;;10.10;99.90;;;;;;5021213;28;20420;-82
2022/04/23 06:06:37;;;;;;;16.70;10.50;;;10.20;99.90;;;;;;5020147;28;20077;-81
2022/04/23 06:09:03;;;;;;;15.40;10.88;;;10.20;99.90;;;;;;5022845;28;20053;-81
2022/04/23 06:11:29;;;;;;;12.18;10.13;;;10.30;99.90;;;;;;5020897;28;20057;-81
2022/04/23 06:13:54;;;;;;;14.50;11.00;;;10.30;99.90;;;;;;5020207;28;20053;-82
2022/04/23 06:16:20;;;;;;;13.02;10.45;;;10.40;99.90;;;;;;5017280;28;20581;-84
2022/04/23 06:18:45;;;;;;;12.48;10.07;;;10.50;99.90;;;;;;5019729;28;20073;-83
2022/04/23 06:21:11;;;;;;;13.57;9.68;;;10.50;99.90;;;;;;5020382;28;20180;-83
2022/04/23 06:23:36;;;;;;;13.50;10.05;;;10.60;99.90;;;;;;5019865;28;20049;-84
2022/04/23 06:26:02;;;;;;;14.15;10.75;;;10.60;99.90;;;;;;5019953;28;20123;-82
2022/04/23 06:28:28;;;;;;;14.70;10.32;;;10.70;99.90;;;;;;5022720;28;20362;-82
2022/04/23 06:30:53;;;;;;;14.57;10.57;;;10.70;99.90;;;;;;5016092;28;20046;-82
2022/04/23 06:33:19;;;;;;;15.18;10.82;;;10.80;99.90;;;;;;5019528;28;20052;-81
2022/04/23 06:35:44;;;;;;;13.68;9.93;;;10.90;99.90;;;;;;5015547;28;20038;-83
2022/04/23 06:38:11;;;;;;;14.25;9.90;;;11.00;99.90;;;;;;5019061;28;20491;-82
2022/04/23 06:40:37;;;;;;;13.82;9.88;;;11.10;99.90;;;;;;5016052;28;20180;-84
2022/04/23 06:43:03;;;;;;;12.95;9.88;;;11.20;99.90;;;;;;5022972;28;20037;-81
2022/04/23 06:45:28;;;;;;;11.90;9.48;;;11.20;99.90;;;;;;5022639;28;20041;-81
2022/04/23 06:48:02;;;;;;;14.25;9.82;;;11.20;99.90;;;;;;5024580;28;20427;-81
2022/04/23 06:50:28;;;;;;;12.75;8.77;;;11.30;99.90;;;;;;5022320;28;20037;-82
2022/04/23 06:52:53;;;;;;;13.93;9.80;;;11.40;99.90;;;;;;5019322;28;20049;-81
2022/04/23 06:55:20;;;;;;;13.45;9.18;;;11.40;99.90;;;;;;5021646;28;20037;-81
2022/04/23 06:57:49;;;;;;;14.60;9.85;;;11.50;99.90;;;;;;5021769;28;20052;-82
2022/04/23 07:00:15;;;;;;;13.02;9.15;;;11.60;99.90;;;;;;5019817;28;20249;-83
2022/04/23 07:02:40;;;;;;;11.55;9.38;;;11.60;99.90;;;;;;5027643;28;20108;-82
2022/04/23 07:05:07;;;;;;;13.13;9.30;;;11.70;99.90;;;;;;5025532;28;20144;-80
2022/04/23 07:07:35;;;;;;;14.52;9.93;;;11.70;99.90;;;;;;5025915;28;20425;-81
2022/04/23 07:10:01;;;;;;;13.07;9.98;;;11.80;99.90;;;;;;5036848;28;20120;-75
2022/04/23 07:12:27;;;;;;;19.77;10.48;;;11.80;99.90;;;;;;5035482;28;20073;-83
2022/04/23 07:14:53;;;;;;;16.60;11.20;;;11.90;99.90;;;;;;5022286;28;20100;-83
2022/04/23 07:17:25;;;;;;;13.77;9.57;;;11.90;99.90;;;;;;5025842;28;20049;-81
2022/04/23 07:19:53;;;;;;;13.70;9.03;;;12.00;99.90;;;;;;5028486;28;20037;-81
2022/04/23 07:22:20;;;;;;;13.43;9.32;;;12.10;99.90;;;;;;5026054;28;20291;-81
2022/04/23 07:24:48;;;;;;;15.13;10.38;;;12.20;99.90;;;;;;5026620;28;20041;-82
2022/04/23 07:27:13;;;;;;;14.65;9.77;;;12.30;99.90;;;;;;5021901;28;20095;-80
2022/04/23 07:29:39;;;;;;;13.23;9.55;;;12.20;99.90;;;;;;5020829;28;20069;-82
2022/04/23 07:32:05;;;;;;;12.20;10.35;;;12.30;99.90;;;;;;5020724;28;20038;-77
2022/04/23 07:37:28;;;;;;;14.80;10.10;;;12.50;99.90;;;;;;5004667;28;20492;-76
2022/04/23 07:40:21;;;;;;;16.38;10.48;;;12.50;99.90;;;;;;5021960;28;20076;-69
2022/04/23 07:42:46;;;;;;;14.18;10.45;;;12.60;99.90;;;;;;5023257;28;20045;-68
2022/04/23 07:45:12;;;;;;;12.88;9.40;;;12.70;99.90;;;;;;5017530;28;20599;-76
2022/04/23 07:47:38;;;;;;;15.25;10.63;;;12.80;99.90;;;;;;5012907;28;20091;-68
2022/04/23 07:50:04;;;;;;;13.35;10.00;;;12.80;99.90;;;;;;5017125;28;20808;-83
2022/04/23 07:52:30;;;;;;;15.23;10.07;;;12.90;99.90;;;;;;5038592;28;20045;-75
2022/04/23 07:54:56;;;;;;;14.32;9.52;;;13.00;99.90;;;;;;5017179;28;20044;-75
2022/04/23 07:57:23;;;;;;;13.27;9.75;;;13.10;99.90;;;;;;5020601;28;20681;-78
2022/04/23 07:59:49;;;;;;;16.75;9.55;;;13.20;99.90;;;;;;5019067;28;20051;-79
2022/04/23 08:02:14;;;;;;;17.05;9.70;;;13.30;99.90;;;;;;5015046;28;20098;-81
2022/04/23 08:04:40;;;;;;;12.98;9.35;;;13.30;99.90;;;;;;5011741;28;20046;-78
2022/04/23 08:07:06;;;;;;;12.32;9.80;;;13.40;99.90;;;;;;5021603;28;20045;-79
2022/04/23 08:09:39;;;;;;;11.45;8.50;;;13.40;99.90;;;;;;5018724;28;20084;-78
2022/04/23 08:12:06;;;;;;;13.95;8.63;;;13.40;99.90;;;;;;5019951;28;20121;-76
2022/04/23 08:14:32;;;;;;;18.25;10.55;;;13.50;99.90;;;;;;5020544;28;20069;-78
2022/04/23 08:16:59;;;;;;;12.23;8.95;;;13.50;99.90;;;;;;5017561;28;20044;-74
2022/04/23 08:19:25;;;;;;;13.05;9.35;;;13.70;99.90;;;;;;5014332;28;20056;-79
2022/04/23 08:21:51;;;;;;;12.35;9.50;;;13.80;99.90;;;;;;5015220;28;20077;-80
2022/04/23 08:24:16;;;;;;;10.80;7.80;;;13.90;99.90;;;;;;5011532;28;20107;-82
2022/04/23 08:26:42;;;;;;;10.55;7.90;;;14.00;99.90;;;;;;5013182;28;20058;-77
2022/04/23 08:31:52;;;;;;;14.27;8.45;;;14.20;99.90;;;;;;5017894;28;20522;-85
2022/04/23 08:34:18;;;;;;;10.23;7.97;;;14.30;99.90;;;;;;5017090;28;20044;-79
2022/04/23 08:36:44;;;;;;;15.85;8.90;;;14.30;99.90;;;;;;5014260;28;20057;-81
2022/04/23 08:39:10;;;;;;;15.45;9.40;;;14.30;99.90;;;;;;5011424;28;20076;-75
2022/04/23 08:41:35;;;;;;;16.23;9.50;;;14.20;99.90;;;;;;5017644;28;20049;-77
2022/04/23 08:44:05;;;;;;;15.02;9.25;;;14.20;99.90;;;;;;5014971;28;20149;-79
2022/04/23 08:46:39;;;;;;;10.00;8.27;;;14.30;99.90;;;;;;5012331;28;20052;-72
2022/04/23 08:49:09;;;;;;;9.38;8.13;;;14.40;99.90;;;;;;5009623;28;20547;-83
2022/04/23 08:51:36;;;;;;;14.00;9.48;;;14.50;99.90;;;;;;5013117;28;20065;-76
2022/04/23 08:54:08;;;;;;;15.43;8.57;;;14.60;99.90;;;;;;5017200;28;20037;-77
2022/04/23 08:56:42;;;;;;;11.32;8.73;;;14.50;99.90;;;;;;5011896;28;21806;-79
2022/04/23 08:59:08;;;;;;;10.20;8.60;;;14.50;99.90;;;;;;5016936;28;20528;-80
2022/04/23 09:01:36;;;;;;;12.55;8.73;;;14.60;99.90;;;;;;5010439;28;20049;-76
2022/04/23 09:04:03;;;;;;;12.60;8.18;;;14.60;99.90;;;;;;5013738;28;20041;-75
2022/04/23 09:06:43;;;;;;;10.95;9.02;;;14.60;99.90;;;;;;5012865;28;20048;-73
2022/04/23 09:09:13;;;;;;;10.13;9.00;;;14.60;99.90;;;;;;5017145;28;20041;-74
2022/04/23 09:11:41;;;;;;;10.02;8.52;;;14.70;99.90;;;;;;5011757;28;20050;-75
2022/04/23 09:14:08;;;;;;;11.55;8.70;;;14.80;99.90;;;;;;5008654;28;20042;-76
2022/04/23 09:25:10;;;;;;;12.43;8.52;;;14.90;99.90;;;;;;5010159;28;20132;-73
2022/04/23 09:27:37;;;;;;;15.05;9.27;;;14.90;99.90;;;;;;5014076;28;20049;-73
2022/04/23 09:30:08;;;;;;;10.20;7.80;;;14.90;99.90;;;;;;5025501;28;20065;-73
2022/04/23 09:32:34;;;;;;;18.95;9.32;;;15.00;99.90;;;;;;5015864;28;20056;-73
2022/04/23 09:35:11;;;;;;;13.38;9.00;;;15.10;99.90;;;;;;5017749;28;20056;-73
2022/04/23 09:40:26;;;;;;;11.50;9.35;;;15.20;99.90;;;;;;5011615;28;20042;-74
2022/04/23 09:42:56;;;;;;;12.30;9.57;;;15.30;99.90;;;;;;5012263;28;20060;-75
2022/04/23 09:45:25;;;;;;;10.98;9.15;;;15.50;99.90;;;;;;4998359;28;20049;-74
2022/04/23 09:47:50;;;;;;;11.20;9.02;;;15.50;99.90;;;;;;5016741;28;20049;-77
2022/04/23 09:50:16;;;;;;;13.00;9.25;;;15.50;99.90;;;;;;5010746;28;20056;-71
2022/04/23 09:52:42;;;;;;;14.30;9.70;;;15.50;99.90;;;;;;5015553;28;20103;-81
2022/04/23 09:55:10;;;;;;;13.82;9.45;;;15.60;99.90;;;;;;5015905;28;20098;-74
2022/04/23 09:57:38;;;;;;;12.13;8.73;;;15.70;99.90;;;;;;5016694;28;20070;-71
2022/04/23 10:00:07;;;;;;;11.63;8.35;;;15.80;99.90;;;;;;5017720;28;20049;-76
2022/04/23 10:02:33;;;;;;;13.43;9.48;;;15.80;99.90;;;;;;5019389;28;20045;-72
2022/04/23 10:05:01;;;;;;;12.23;9.38;;;15.80;99.90;;;;;;5016189;28;20042;-71
2022/04/23 10:07:29;;;;;;;15.52;9.27;;;15.90;99.90;;;;;;5019575;28;20052;-71
2022/04/23 10:10:02;;;;;;;10.25;8.23;;;16.00;99.90;;;;;;5021332;28;20046;-74
2022/04/23 10:12:33;;;;;;;14.38;9.55;;;16.10;99.90;;;;;;5015788;28;20073;-70
2022/04/23 10:15:00;;;;;;;11.50;9.38;;;16.00;99.90;;;;;;5016245;28;20645;-67
2022/04/23 10:17:28;;;;;;;10.43;9.18;;;16.10;99.90;;;;;;5019749;28;20083;-68
2022/04/23 10:19:55;;;;;;;14.32;9.20;;;16.00;99.90;;;;;;5000941;28;20045;-76
2022/04/23 10:22:37;;;;;;;14.05;9.68;;;16.00;99.90;;;;;;5013989;28;20049;-68
2022/04/23 10:25:22;;;;;;;12.27;10.00;;;16.00;99.90;;;;;;5019789;28;20045;-78
2022/04/23 10:27:49;;;;;;;11.30;9.02;;;16.10;99.90;;;;;;5016718;28;20041;-77
2022/04/23 10:30:15;;;;;;;11.68;9.60;;;16.30;99.90;;;;;;5021002;28;20045;-77
2022/04/23 10:32:43;;;;;;;11.40;9.18;;;16.40;99.90;;;;;;5016962;28;20041;-75
2022/04/23 10:35:17;;;;;;;10.95;8.70;;;16.50;99.90;;;;;;5012586;28;20045;-74
2022/04/23 10:37:44;;;;;;;13.90;9.35;;;16.60;99.90;;;;;;5002026;28;20562;-73
2022/04/23 10:40:18;;;;;;;12.50;9.70;;;16.60;99.90;;;;;;5013996;28;20046;-79
2022/04/23 10:43:06;;;;;;;14.80;9.23;;;16.50;99.90;;;;;;5014960;28;20046;-79
2022/04/23 10:45:36;;;;;;;14.35;10.15;;;16.50;99.90;;;;;;5015981;28;20057;-78
2022/04/23 10:48:22;;;;;;;10.00;8.60;;;16.60;99.90;;;;;;5016662;28;20648;-78
2022/04/23 10:51:19;;;;;;;10.68;8.50;;;16.40;99.80;;;;;;5015838;28;20574;-80
2022/04/23 10:53:46;;;;;;;14.20;7.93;;;16.40;99.90;;;;;;5019674;28;20075;-79
2022/04/23 10:56:15;;;;;;;10.20;8.43;;;16.30;98.90;;;;;;5015842;28;20410;-79
2022/04/23 10:58:41;;;;;;;9.32;8.27;;;16.30;98.60;;;;;;5019418;28;20457;-79
2022/04/23 11:01:29;;;;;;;10.82;8.90;;;16.20;98.20;;;;;;5018036;28;20429;-79
2022/04/23 11:03:56;;;;;;;11.30;8.40;;;16.20;98.30;;;;;;5015321;28;20073;-79
2022/04/23 11:12:19;;;;;;;10.05;8.57;;;16.50;98.40;;;;;;4997952;28;20913;-78
2022/04/23 11:14:47;;;;;;;11.95;9.52;;;16.60;98.30;;;;;;4996695;28;20453;-80
2022/04/23 11:17:14;;;;;;;11.90;8.40;;;16.60;97.90;;;;;;4998665;28;20425;-79
2022/04/23 11:19:40;;;;;;;9.90;8.38;;;16.70;98.20;;;;;;4999871;28;20054;-79
2022/04/23 11:22:09;;;;;;;10.32;8.85;;;16.80;97.90;;;;;;4997141;28;20039;-78
2022/04/23 11:24:35;;;;;;;11.63;8.90;;;16.70;97.40;;;;;;4990574;28;20049;-80
2022/04/23 11:27:01;;;;;;;11.90;9.18;;;16.70;97.40;;;;;;4992756;28;20038;-75
2022/04/23 11:29:27;;;;;;;10.80;8.60;;;16.70;97.00;;;;;;4986672;28;20409;-73
2022/04/23 11:31:56;;;;;;;11.73;8.38;;;16.60;96.60;;;;;;4993151;28;20494;-73
2022/04/23 11:34:22;;;;;;;9.95;8.00;;;16.50;96.00;;;;;;4992339;28;20054;-73
2022/04/23 11:36:48;;;;;;;13.27;8.75;;;16.50;96.50;;;;;;4998984;28;20062;-68
2022/04/23 11:39:15;;;;;;;12.57;9.00;;;16.60;96.60;;;;;;5000093;28;20541;-68
2022/04/23 11:41:42;;;;;;;11.07;8.85;;;16.70;97.00;;;;;;4992495;28;20687;-72
2022/04/23 11:44:14;;;;;;;12.15;8.85;;;16.70;96.10;;;;;;4997466;28;20097;-71
2022/04/23 11:46:48;;;;;;;11.10;9.10;;;16.80;96.30;;;;;;4994987;28;20493;-72
2022/04/23 11:49:29;;;;;;;10.77;8.05;;;16.80;96.40;;;;;;4993744;28;20292;-72
2022/04/23 11:52:05;;;;;;;9.93;8.10;;;16.80;95.70;;;;;;4971401;28;20502;-75
2022/04/23 11:54:33;;;;;;;9.48;8.48;;;16.90;95.40;;;;;;5015440;28;20038;-79
2022/04/23 11:56:58;;;;;;;13.77;8.63;;;16.90;95.10;;;;;;4996900;28;20128;-78
2022/04/23 11:59:25;;;;;;;12.27;8.95;;;17.00;95.90;;;;;;5017616;28;20599;-78
2022/04/23 12:01:50;;;;;;;8.80;7.45;;;16.90;94.70;;;;;;5015011;28;20689;-76
2022/04/23 12:04:16;;;;;;;9.90;8.70;;;16.90;94.90;;;;;;4995061;28;20045;-73
2022/04/23 12:06:46;;;;;;;12.93;8.70;;;17.00;95.90;;;;;;5005011;28;20307;-84
2022/04/23 12:09:12;;;;;;;13.10;8.60;;;17.20;95.70;;;;;;5014924;28;20128;-78
2022/04/23 12:11:38;;;;;;;14.25;7.63;;;17.20;94.90;;;;;;5019609;28;20381;-76
2022/04/23 12:14:04;;;;;;;11.00;7.97;;;17.30;93.70;;;;;;5014201;28;20091;-75
2022/04/23 12:16:38;;;;;;;11.07;8.23;;;17.40;94.60;;;;;;5011821;28;20049;-81
2022/04/23 12:19:09;;;;;;;10.27;8.88;;;17.40;93.60;;;;;;5015668;28;20042;-81
2022/04/23 12:21:36;;;;;;;9.60;8.10;;;17.40;94.30;;;;;;5012684;28;20080;-81
2022/04/23 12:24:03;;;;;;;9.80;7.65;;;17.30;93.10;;;;;;5011137;28;20057;-81
2022/04/23 12:26:34;;;;;;;10.38;7.38;;;17.40;93.50;;;;;;5015632;28;20071;-79
2022/04/23 12:42:33;;;;;;;9.50;7.45;;;17.50;92.00;;;;;;5014406;28;20053;-81
2022/04/23 12:44:58;;;;;;;12.23;7.43;;;17.40;92.50;;;;;;5016720;28;20049;-80
2022/04/23 12:47:34;;;;;;;12.13;8.50;;;17.50;91.20;;;;;;5016506;28;20046;-81
2022/04/23 12:50:02;;;;;;;15.63;8.18;;;17.50;90.40;;;;;;5019472;28;20073;-79
2022/04/23 12:52:41;;;;;;;10.00;8.63;;;17.40;91.00;;;;;;5018244;28;20053;-77
2022/04/23 12:55:12;;;;;;;10.05;7.90;;;17.50;91.00;;;;;;5017144;28;20482;-80
2022/04/23 12:57:49;;;;;;;9.68;7.45;;;17.50;90.70;;;;;;5020781;28;20045;-80
2022/04/23 13:00:20;;;;;;;13.30;7.60;;;17.60;91.40;;;;;;5036015;28;20099;-85
2022/04/23 13:02:50;;;;;;;13.20;8.05;;;17.60;91.60;;;;;;5016079;28;20616;-79
2022/04/23 13:05:16;;;;;;;11.82;7.82;;;17.60;90.80;;;;;;5013482;28;20740;-83
2022/04/23 13:10:26;;;;;;;15.85;8.68;;;17.40;90.20;;;;;;5012658;28;20041;-84
2022/04/23 13:12:52;;;;;;;11.30;7.82;;;17.50;90.70;;;;;;5000676;28;20046;-80
2022/04/23 13:15:17;;;;;;;11.00;7.60;;;17.40;90.70;;;;;;4999596;28;20174;-79
2022/04/23 13:17:45;;;;;;;8.43;7.55;;;17.50;90.40;;;;;;5000745;28;20050;-82
2022/04/23 13:20:12;;;;;;;9.90;7.85;;;17.60;89.90;;;;;;4996699;28;20049;-78
2022/04/23 13:22:43;;;;;;;8.75;7.32;;;17.50;89.40;;;;;;4987043;28;20042;-78